Time;durP1;ratioP1;P1;durP2;ratioP2;P2;SDS_P1;SDS_P2;PMS_P1;PMS_P2;Temp;Humidity;BMP_temperature;BMP_pressure;BME280_temperature;BME280_humidity;BME280_pressure;Samples;Min_cycle;Max_cycle;Signal;HPM_P1;HPM_P2
2021/03/30 00:01:54;;;;;;;6.43;2.95;;;11.40;63.10;;;;;;4925240;29;20063;-76
2021/03/30 00:04:20;;;;;;;6.28;2.78;;;11.30;62.50;;;;;;4910455;29;20048;-76
2021/03/30 00:06:47;;;;;;;6.20;3.00;;;11.40;62.70;;;;;;4893506;29;20051;-76
2021/03/30 00:09:13;;;;;;;6.18;2.90;;;11.40;62.90;;;;;;4906089;29;20478;-75
2021/03/30 00:11:41;;;;;;;6.93;2.92;;;11.40;62.70;;;;;;4914108;29;20160;-74
2021/03/30 00:14:07;;;;;;;8.38;3.65;;;11.40;62.10;;;;;;4901645;29;20102;-77
2021/03/30 00:16:34;;;;;;;4.95;2.92;;;11.30;61.90;;;;;;4911556;29;20086;-77
2021/03/30 00:19:01;;;;;;;5.65;3.08;;;11.20;61.70;;;;;;4904010;29;20458;-75
2021/03/30 00:21:27;;;;;;;5.55;3.00;;;11.00;62.50;;;;;;4897935;29;20084;-76
2021/03/30 00:23:54;;;;;;;8.68;3.08;;;10.90;63.70;;;;;;4909665;29;20079;-76
2021/03/30 00:26:21;;;;;;;6.43;2.90;;;10.90;64.30;;;;;;4907343;29;20123;-76
2021/03/30 00:28:48;;;;;;;6.57;3.20;;;10.80;64.10;;;;;;4913198;29;20939;-76
2021/03/30 00:31:15;;;;;;;8.93;3.20;;;10.80;64.10;;;;;;4906265;29;20459;-74
2021/03/30 00:33:42;;;;;;;6.95;2.88;;;10.80;64.50;;;;;;4903889;29;20146;-75
2021/03/30 00:36:08;;;;;;;5.57;2.70;;;10.60;64.80;;;;;;4897616;29;20124;-75
2021/03/30 00:38:35;;;;;;;6.63;2.67;;;10.70;65.70;;;;;;4907472;29;20083;-75
2021/03/30 00:41:02;;;;;;;6.28;2.90;;;10.60;66.20;;;;;;4914774;29;20048;-74
2021/03/30 00:43:30;;;;;;;5.57;2.85;;;10.60;66.40;;;;;;4895815;29;20184;-74
2021/03/30 00:45:58;;;;;;;6.78;2.88;;;10.60;66.80;;;;;;4901405;29;20152;-75
2021/03/30 00:48:28;;;;;;;6.60;2.88;;;10.60;67.10;;;;;;4897692;29;20156;-76
2021/03/30 00:50:55;;;;;;;7.57;2.85;;;10.60;67.30;;;;;;4908613;29;20522;-75
2021/03/30 00:53:22;;;;;;;5.20;2.63;;;10.70;67.30;;;;;;4900672;29;20098;-74
2021/03/30 00:55:49;;;;;;;6.30;2.90;;;10.60;66.90;;;;;;4930380;29;20154;-74
2021/03/30 00:58:15;;;;;;;6.07;2.85;;;10.60;67.40;;;;;;4932500;29;20044;-75
2021/03/30 01:00:42;;;;;;;6.97;3.20;;;10.60;67.80;;;;;;4916603;29;20067;-75
2021/03/30 01:03:10;;;;;;;6.55;3.00;;;10.60;67.20;;;;;;4908883;29;20079;-74
2021/03/30 01:05:36;;;;;;;7.10;3.00;;;10.50;67.40;;;;;;4927433;29;20051;-75
2021/03/30 01:08:19;;;;;;;6.53;3.15;;;10.50;67.60;;;;;;4921008;29;20060;-76
2021/03/30 01:10:55;;;;;;;6.63;2.97;;;10.50;67.70;;;;;;4926369;29;20088;-75
2021/03/30 01:13:54;;;;;;;5.82;2.90;;;10.50;67.30;;;;;;4918383;29;20048;-74
2021/03/30 01:16:27;;;;;;;7.43;3.03;;;10.40;67.10;;;;;;4909506;29;20107;-76
2021/03/30 01:19:03;;;;;;;6.22;2.80;;;10.30;67.70;;;;;;4900546;29;20056;-74
2021/03/30 01:21:54;;;;;;;5.15;2.75;;;10.20;68.40;;;;;;4901253;29;20475;-74
2021/03/30 01:24:23;;;;;;;6.00;2.83;;;10.10;68.90;;;;;;4919145;29;20073;-74
2021/03/30 01:26:59;;;;;;;5.75;2.88;;;10.00;69.60;;;;;;4909503;29;20410;-75
2021/03/30 01:29:49;;;;;;;5.18;2.80;;;10.00;70.40;;;;;;4908697;29;20084;-74
2021/03/30 01:32:26;;;;;;;6.22;2.72;;;9.90;71.40;;;;;;4915604;29;20467;-74
2021/03/30 01:34:56;;;;;;;6.60;2.75;;;9.90;71.80;;;;;;4909836;29;20052;-73
2021/03/30 01:37:24;;;;;;;7.78;3.10;;;9.90;71.50;;;;;;4914353;29;20059;-76
2021/03/30 01:39:59;;;;;;;6.43;3.00;;;10.00;71.20;;;;;;4918752;29;20075;-74
2021/03/30 01:42:29;;;;;;;5.40;2.50;;;9.90;71.80;;;;;;4923759;29;20087;-74
2021/03/30 01:44:58;;;;;;;6.40;2.70;;;9.90;72.10;;;;;;4917281;29;20048;-76
2021/03/30 01:47:28;;;;;;;6.72;3.00;;;9.90;72.20;;;;;;4909575;29;20079;-75
2021/03/30 01:49:54;;;;;;;6.10;2.55;;;9.80;72.60;;;;;;4923211;29;20071;-74
2021/03/30 01:52:21;;;;;;;5.78;2.92;;;9.80;72.50;;;;;;4915847;29;20535;-76
2021/03/30 01:54:50;;;;;;;5.32;2.67;;;9.80;72.30;;;;;;4912453;29;20084;-74
2021/03/30 01:57:21;;;;;;;5.28;3.03;;;9.60;71.60;;;;;;4925291;29;20099;-75
2021/03/30 01:59:49;;;;;;;5.13;2.53;;;9.70;73.00;;;;;;4917165;29;20055;-75
2021/03/30 02:02:17;;;;;;;6.95;2.72;;;9.60;73.30;;;;;;4923754;29;20055;-74
2021/03/30 02:04:44;;;;;;;5.65;2.40;;;9.60;74.00;;;;;;4930729;29;20052;-74
2021/03/30 02:07:14;;;;;;;7.07;2.83;;;9.60;73.80;;;;;;4932831;29;20075;-77
2021/03/30 02:09:44;;;;;;;8.98;3.08;;;9.60;72.80;;;;;;4911938;29;20044;-75
2021/03/30 02:12:13;;;;;;;6.90;2.63;;;9.50;73.10;;;;;;4922175;29;20044;-75
2021/03/30 02:14:40;;;;;;;6.93;2.83;;;9.40;73.70;;;;;;4913514;29;20051;-75
2021/03/30 02:17:14;;;;;;;5.80;3.10;;;9.30;73.80;;;;;;4919100;29;20052;-76
2021/03/30 02:19:47;;;;;;;5.95;2.58;;;9.30;74.20;;;;;;4916850;29;20059;-76
2021/03/30 02:22:24;;;;;;;5.30;2.67;;;9.20;74.20;;;;;;4911032;29;20091;-75
2021/03/30 02:24:52;;;;;;;6.22;3.00;;;9.00;75.30;;;;;;4922278;29;20055;-76
2021/03/30 02:27:22;;;;;;;6.35;2.60;;;9.10;76.00;;;;;;4916967;29;20075;-76
2021/03/30 02:29:51;;;;;;;5.40;2.60;;;9.20;76.40;;;;;;4907755;29;20076;-74
2021/03/30 02:32:19;;;;;;;5.60;2.60;;;9.10;76.10;;;;;;4916774;29;20058;-75
2021/03/30 02:34:48;;;;;;;5.18;2.72;;;9.10;77.10;;;;;;4917644;29;20040;-74
2021/03/30 02:37:17;;;;;;;6.38;2.80;;;9.10;77.00;;;;;;4910006;29;20045;-75
2021/03/30 02:39:44;;;;;;;6.15;2.80;;;9.20;76.10;;;;;;4913479;29;20102;-75
2021/03/30 02:42:13;;;;;;;5.53;2.88;;;9.10;76.10;;;;;;4905057;29;20048;-75
2021/03/30 02:44:41;;;;;;;5.20;2.50;;;9.00;76.00;;;;;;4916668;29;20124;-75
2021/03/30 02:47:09;;;;;;;6.43;2.50;;;8.90;76.80;;;;;;4911033;29;20083;-75
2021/03/30 02:49:36;;;;;;;7.63;3.08;;;8.80;77.70;;;;;;4916146;29;20079;-76
2021/03/30 02:52:06;;;;;;;4.57;2.20;;;8.80;77.90;;;;;;4919320;29;20084;-76
2021/03/30 02:54:32;;;;;;;6.38;2.45;;;8.80;78.80;;;;;;4907859;29;20451;-76
2021/03/30 02:57:01;;;;;;;4.78;2.40;;;8.70;79.20;;;;;;4913397;29;20079;-74
2021/03/30 02:59:29;;;;;;;4.13;2.22;;;8.80;79.20;;;;;;4902402;29;20076;-75
2021/03/30 03:01:57;;;;;;;6.68;2.30;;;8.60;78.90;;;;;;4902073;29;20123;-74
2021/03/30 03:04:26;;;;;;;6.25;2.40;;;8.80;79.90;;;;;;4902434;29;20400;-73
2021/03/30 03:06:54;;;;;;;5.57;2.78;;;8.70;79.60;;;;;;4902793;29;20096;-75
2021/03/30 03:09:21;;;;;;;5.05;2.53;;;8.70;79.40;;;;;;4906387;29;20080;-76
2021/03/30 03:11:49;;;;;;;4.35;2.13;;;8.70;80.10;;;;;;4897516;29;20143;-74
2021/03/30 03:14:19;;;;;;;5.68;2.60;;;8.70;80.50;;;;;;4912283;29;20110;-74
2021/03/30 03:16:47;;;;;;;4.57;2.30;;;8.70;80.10;;;;;;4901891;29;20131;-74
2021/03/30 03:19:16;;;;;;;7.50;2.80;;;8.70;80.50;;;;;;4911287;29;20127;-74
2021/03/30 03:21:43;;;;;;;5.32;2.60;;;8.70;80.90;;;;;;4903432;29;20080;-74
2021/03/30 03:24:13;;;;;;;4.82;2.25;;;8.70;81.30;;;;;;4912704;29;20471;-74
2021/03/30 03:26:41;;;;;;;5.18;2.58;;;8.70;81.40;;;;;;4906167;29;20412;-75
2021/03/30 03:29:14;;;;;;;5.78;2.28;;;8.70;80.70;;;;;;4913447;29;20135;-75
2021/03/30 03:31:41;;;;;;;7.78;2.92;;;8.60;81.20;;;;;;4912482;29;20114;-74
2021/03/30 03:34:08;;;;;;;6.72;2.65;;;8.60;81.00;;;;;;4921297;29;20622;-76
2021/03/30 03:36:39;;;;;;;6.20;2.50;;;8.60;80.00;;;;;;4906541;29;20044;-74
2021/03/30 03:39:08;;;;;;;4.90;2.60;;;8.40;81.00;;;;;;4911405;29;20048;-74
2021/03/30 03:41:34;;;;;;;6.30;2.97;;;8.50;81.60;;;;;;4913554;29;20095;-74
2021/03/30 03:44:03;;;;;;;6.78;2.30;;;8.40;81.60;;;;;;4921458;29;20422;-78
2021/03/30 03:46:30;;;;;;;5.88;2.75;;;8.40;81.30;;;;;;4906649;29;20503;-78
2021/03/30 03:48:57;;;;;;;6.53;2.47;;;8.40;82.00;;;;;;4913640;29;20051;-76
2021/03/30 03:51:25;;;;;;;6.80;2.60;;;8.40;81.80;;;;;;4917081;29;20083;-78
2021/03/30 03:53:55;;;;;;;6.28;2.55;;;8.40;82.30;;;;;;4908692;29;20428;-79
2021/03/30 03:56:29;;;;;;;5.32;2.72;;;8.40;81.30;;;;;;4917611;29;20134;-76
2021/03/30 03:59:02;;;;;;;7.72;2.90;;;8.40;81.10;;;;;;4896989;29;20135;-76
2021/03/30 04:01:38;;;;;;;6.07;2.65;;;8.30;81.00;;;;;;4906654;29;20056;-77
2021/03/30 04:04:15;;;;;;;6.40;2.65;;;8.20;81.00;;;;;;4898908;29;20103;-77
2021/03/30 04:06:49;;;;;;;5.45;2.53;;;8.10;81.70;;;;;;4910356;29;20055;-76
2021/03/30 04:09:20;;;;;;;6.88;2.70;;;8.10;82.40;;;;;;4904690;29;20108;-77
2021/03/30 04:11:50;;;;;;;5.20;2.50;;;8.00;84.20;;;;;;4901853;29;20384;-75
2021/03/30 04:14:19;;;;;;;6.30;2.47;;;8.00;84.20;;;;;;4911586;29;20130;-77
2021/03/30 04:16:46;;;;;;;5.80;2.90;;;8.10;84.70;;;;;;4906752;29;20057;-76
2021/03/30 04:19:14;;;;;;;5.78;2.80;;;7.90;84.40;;;;;;4901262;29;20527;-72
2021/03/30 04:21:40;;;;;;;5.70;2.97;;;8.10;85.00;;;;;;4902813;29;20135;-74
2021/03/30 04:24:08;;;;;;;5.85;2.67;;;8.10;85.20;;;;;;4910901;29;20513;-75
2021/03/30 04:26:36;;;;;;;6.13;2.65;;;8.00;84.70;;;;;;4911078;29;20080;-76
2021/03/30 04:29:03;;;;;;;6.45;2.60;;;8.10;84.70;;;;;;4913409;29;20052;-75
2021/03/30 04:31:31;;;;;;;6.05;2.40;;;8.10;84.30;;;;;;4914789;29;20087;-74
2021/03/30 04:33:58;;;;;;;6.72;2.75;;;8.00;84.60;;;;;;4914601;29;20406;-76
2021/03/30 04:36:25;;;;;;;4.70;2.50;;;8.00;84.30;;;;;;4915066;29;20142;-75
2021/03/30 04:38:52;;;;;;;5.10;2.40;;;8.00;83.70;;;;;;4914526;29;20474;-74
2021/03/30 04:41:18;;;;;;;5.45;2.30;;;8.00;83.80;;;;;;4914590;29;20483;-75
2021/03/30 04:43:45;;;;;;;4.78;2.20;;;7.90;84.50;;;;;;4914600;29;20087;-73
2021/03/30 04:46:11;;;;;;;4.93;2.28;;;7.90;84.90;;;;;;4914551;29;20127;-73
2021/03/30 04:48:39;;;;;;;5.15;2.50;;;7.90;85.60;;;;;;4918739;29;20087;-74
2021/03/30 04:51:06;;;;;;;6.68;2.50;;;7.90;86.00;;;;;;4916562;29;20135;-75
2021/03/30 04:53:34;;;;;;;6.15;2.50;;;8.00;85.70;;;;;;4914537;29;20055;-74
2021/03/30 04:56:01;;;;;;;6.38;2.22;;;8.00;85.20;;;;;;4914963;29;20061;-75
2021/03/30 04:58:28;;;;;;;5.15;2.17;;;8.00;84.40;;;;;;4914970;29;20092;-74
2021/03/30 05:00:55;;;;;;;5.55;2.60;;;8.00;84.90;;;;;;4915342;29;20459;-75
2021/03/30 05:03:21;;;;;;;5.90;2.63;;;8.00;84.90;;;;;;4914913;29;20057;-74
2021/03/30 05:05:49;;;;;;;4.65;2.42;;;8.00;85.00;;;;;;4914820;29;20144;-74
2021/03/30 05:08:16;;;;;;;4.50;2.63;;;8.00;84.30;;;;;;4914970;29;20072;-74
2021/03/30 05:10:42;;;;;;;5.60;2.50;;;8.00;82.90;;;;;;4915383;29;20083;-75
2021/03/30 05:13:09;;;;;;;4.82;2.10;;;7.90;83.10;;;;;;4914917;29;20502;-74
2021/03/30 05:15:35;;;;;;;7.95;2.72;;;7.70;84.00;;;;;;4917025;29;20123;-75
2021/03/30 05:18:02;;;;;;;7.07;2.58;;;7.60;84.40;;;;;;4918291;29;20076;-73
2021/03/30 05:20:29;;;;;;;4.65;2.33;;;7.60;84.30;;;;;;4918801;29;20139;-74
2021/03/30 05:22:56;;;;;;;5.60;2.45;;;7.50;84.30;;;;;;4918539;29;20091;-75
2021/03/30 05:25:23;;;;;;;5.07;2.22;;;7.40;84.00;;;;;;4918597;29;20083;-75
2021/03/30 05:27:50;;;;;;;4.60;2.20;;;7.30;84.90;;;;;;4918747;29;20052;-75
2021/03/30 05:30:18;;;;;;;6.03;2.47;;;7.30;86.80;;;;;;4921928;29;20567;-74
2021/03/30 05:32:45;;;;;;;6.22;2.15;;;7.20;87.50;;;;;;4927192;29;20056;-74
2021/03/30 05:35:14;;;;;;;6.25;2.20;;;7.30;87.90;;;;;;4926793;29;20052;-74
2021/03/30 05:37:40;;;;;;;4.47;2.10;;;7.30;88.50;;;;;;4924697;29;20055;-75
2021/03/30 05:40:10;;;;;;;5.95;2.60;;;7.30;89.00;;;;;;4928665;29;20095;-74
2021/03/30 05:42:39;;;;;;;5.47;2.55;;;7.40;88.70;;;;;;4929185;29;20044;-74
2021/03/30 05:45:08;;;;;;;6.80;2.90;;;7.40;88.60;;;;;;4926601;29;20509;-76
2021/03/30 05:47:35;;;;;;;6.47;3.08;;;7.40;88.00;;;;;;4918150;29;20206;-74
2021/03/30 05:50:09;;;;;;;7.47;3.40;;;7.50;88.80;;;;;;4919513;29;20056;-74
2021/03/30 05:52:45;;;;;;;8.37;3.27;;;7.50;90.00;;;;;;4918071;29;20090;-74
2021/03/30 05:55:24;;;;;;;4.97;2.70;;;7.60;89.90;;;;;;4917773;29;20654;-74
2021/03/30 05:57:53;;;;;;;6.53;2.55;;;7.70;88.40;;;;;;4917698;29;20059;-75
2021/03/30 06:00:22;;;;;;;5.05;2.90;;;7.70;88.60;;;;;;4917269;29;20549;-73
2021/03/30 06:02:52;;;;;;;6.70;2.92;;;7.70;88.50;;;;;;4917635;29;20147;-76
2021/03/30 06:05:19;;;;;;;7.70;2.90;;;7.80;88.10;;;;;;4917246;29;20084;-74
2021/03/30 06:07:46;;;;;;;5.65;2.75;;;7.80;88.30;;;;;;4917433;29;20051;-74
2021/03/30 06:10:17;;;;;;;6.80;3.20;;;7.70;88.50;;;;;;4917585;29;20087;-74
2021/03/30 06:12:44;;;;;;;7.70;3.50;;;7.80;88.50;;;;;;4917844;29;20059;-75
2021/03/30 06:15:12;;;;;;;7.20;3.67;;;7.80;88.40;;;;;;4917293;29;20482;-74
2021/03/30 06:17:41;;;;;;;7.22;3.30;;;7.80;89.50;;;;;;4917016;29;20119;-75
2021/03/30 06:20:10;;;;;;;7.78;3.00;;;7.80;90.00;;;;;;4917149;29;20284;-75
2021/03/30 06:22:49;;;;;;;6.60;3.53;;;7.90;90.00;;;;;;4919411;29;20083;-76
2021/03/30 06:28:19;;;;;;;10.00;3.38;;;7.90;90.20;;;;;;5111089;27;20124;-75
2021/03/30 06:31:03;;;;;;;8.07;3.30;;;8.20;90.40;;;;;;5090396;28;20131;-74
2021/03/30 06:33:33;;;;;;;7.20;3.25;;;8.20;90.20;;;;;;5091056;28;20073;-74
2021/03/30 06:36:16;;;;;;;9.18;3.72;;;8.30;90.00;;;;;;5090361;28;20055;-75
2021/03/30 06:38:55;;;;;;;8.18;3.40;;;8.40;89.80;;;;;;5091245;28;20600;-75
2021/03/30 06:41:32;;;;;;;9.10;3.53;;;8.40;89.90;;;;;;5090359;28;20539;-74
2021/03/30 06:46:55;;;;;;;5.78;3.08;;;8.50;90.00;;;;;;5090228;28;20133;-75
2021/03/30 06:49:23;;;;;;;7.15;3.47;;;8.50;90.20;;;;;;5091200;28;20115;-74
2021/03/30 06:51:50;;;;;;;7.57;3.58;;;8.60;89.80;;;;;;5090181;28;20090;-74
2021/03/30 06:54:17;;;;;;;7.03;3.78;;;8.70;89.40;;;;;;5089882;28;20134;-74
2021/03/30 06:56:53;;;;;;;8.13;3.40;;;8.80;89.00;;;;;;5090679;28;20557;-74
2021/03/30 06:59:22;;;;;;;8.50;4.00;;;8.90;89.20;;;;;;5089838;28;20083;-74
2021/03/30 07:01:52;;;;;;;9.07;3.47;;;9.00;89.20;;;;;;5090028;28;20056;-75
2021/03/30 07:04:19;;;;;;;7.78;3.50;;;9.00;89.00;;;;;;5090648;28;20084;-75
2021/03/30 07:06:51;;;;;;;7.53;3.47;;;9.00;88.60;;;;;;5089334;28;20284;-74
2021/03/30 07:09:18;;;;;;;8.25;3.72;;;9.20;88.60;;;;;;5090276;28;20056;-73
2021/03/30 07:11:45;;;;;;;7.75;3.42;;;9.20;88.40;;;;;;5089701;28;20504;-74
2021/03/30 07:14:12;;;;;;;8.23;3.78;;;9.30;88.10;;;;;;5090453;28;20048;-75
2021/03/30 07:16:50;;;;;;;9.15;4.38;;;9.40;86.30;;;;;;5089908;28;20080;-73
2021/03/30 07:19:22;;;;;;;7.85;4.20;;;9.50;85.70;;;;;;5089893;28;20138;-74
2021/03/30 07:22:00;;;;;;;6.60;3.45;;;9.50;85.90;;;;;;5089642;28;20044;-74
2021/03/30 07:24:42;;;;;;;7.70;3.60;;;9.50;86.10;;;;;;5089714;28;20052;-75
2021/03/30 07:27:18;;;;;;;7.15;4.03;;;9.60;86.60;;;;;;5077609;28;20490;-77
2021/03/30 07:29:48;;;;;;;6.38;3.45;;;9.70;85.70;;;;;;5061767;28;20486;-74
2021/03/30 07:32:22;;;;;;;7.47;3.53;;;9.80;85.30;;;;;;5067024;28;20525;-74
2021/03/30 07:34:57;;;;;;;6.93;3.95;;;10.00;85.20;;;;;;5069186;28;20072;-74
2021/03/30 07:37:34;;;;;;;9.27;3.65;;;10.10;84.50;;;;;;5068187;28;20052;-75
2021/03/30 07:40:04;;;;;;;7.55;3.67;;;10.20;84.40;;;;;;5054203;28;20053;-74
2021/03/30 07:42:32;;;;;;;10.32;4.10;;;10.30;84.10;;;;;;5055789;28;20053;-74
2021/03/30 07:45:00;;;;;;;7.10;3.33;;;10.40;83.60;;;;;;5055604;28;20077;-74
2021/03/30 07:47:27;;;;;;;6.55;3.55;;;10.50;82.70;;;;;;5055423;28;20099;-76
2021/03/30 07:49:55;;;;;;;8.15;3.67;;;10.60;82.30;;;;;;5049936;28;20124;-74
2021/03/30 07:52:26;;;;;;;6.13;3.20;;;10.70;82.30;;;;;;5040212;28;20044;-75
2021/03/30 07:55:20;;;;;;;5.93;3.33;;;10.80;81.60;;;;;;5046249;28;20045;-74
2021/03/30 07:58:11;;;;;;;7.55;3.28;;;10.80;81.00;;;;;;5042333;28;20049;-76
2021/03/30 08:00:49;;;;;;;6.25;3.40;;;10.90;80.80;;;;;;5043244;28;20069;-75
2021/03/30 08:03:22;;;;;;;6.63;3.40;;;11.00;80.50;;;;;;5032713;28;20041;-75
2021/03/30 08:06:10;;;;;;;6.15;3.30;;;11.00;80.50;;;;;;5043010;28;20045;-75
2021/03/30 08:08:53;;;;;;;5.35;3.13;;;11.20;80.60;;;;;;5035938;28;20127;-77
2021/03/30 08:11:50;;;;;;;6.25;3.28;;;11.30;79.90;;;;;;5049941;28;20152;-77
2021/03/30 08:14:40;;;;;;;6.78;3.00;;;11.40;79.50;;;;;;5031188;28;20100;-78
2021/03/30 08:17:11;;;;;;;7.05;3.25;;;11.50;78.80;;;;;;5033779;28;20054;-76
2021/03/30 08:20:10;;;;;;;7.75;3.53;;;11.50;78.10;;;;;;5035884;28;20124;-77
2021/03/30 08:23:10;;;;;;;7.53;3.38;;;11.50;78.10;;;;;;5049876;28;20132;-77
2021/03/30 08:25:38;;;;;;;6.68;3.45;;;11.60;78.60;;;;;;5040430;28;20446;-77
2021/03/30 08:28:07;;;;;;;6.85;3.42;;;11.70;78.40;;;;;;5030736;28;20050;-77
2021/03/30 08:30:57;;;;;;;6.30;3.17;;;11.80;78.40;;;;;;5032441;28;20139;-77
2021/03/30 08:33:34;;;;;;;7.55;2.95;;;12.00;78.30;;;;;;5043363;28;20136;-76
2021/03/30 08:36:21;;;;;;;7.95;3.63;;;12.10;77.60;;;;;;5032010;28;20054;-77
2021/03/30 08:38:50;;;;;;;8.07;3.97;;;12.20;77.40;;;;;;5030696;28;20160;-77
2021/03/30 08:41:57;;;;;;;6.22;3.40;;;12.30;76.90;;;;;;5030315;28;20085;-75
2021/03/30 08:44:37;;;;;;;7.95;4.13;;;12.40;76.90;;;;;;5016961;28;20128;-77
2021/03/30 08:47:05;;;;;;;6.57;3.33;;;12.50;76.20;;;;;;5032091;28;20060;-76
2021/03/30 08:49:38;;;;;;;7.50;3.90;;;12.50;76.20;;;;;;5030780;28;20049;-78
2021/03/30 08:52:10;;;;;;;9.48;3.88;;;12.60;76.40;;;;;;5032588;28;20280;-77
2021/03/30 08:54:42;;;;;;;6.78;3.60;;;12.70;76.00;;;;;;5042148;28;20041;-75
2021/03/30 08:57:11;;;;;;;6.90;3.75;;;12.70;75.80;;;;;;5032689;28;20049;-75
2021/03/30 08:59:40;;;;;;;7.40;3.60;;;12.80;75.90;;;;;;5042419;28;20053;-75
2021/03/30 09:02:11;;;;;;;6.68;3.42;;;12.90;75.40;;;;;;5050002;28;20494;-76
2021/03/30 09:04:40;;;;;;;7.15;3.40;;;13.00;75.00;;;;;;5051282;28;20118;-76
2021/03/30 09:07:09;;;;;;;6.63;3.42;;;13.10;74.80;;;;;;5050991;28;20295;-77
2021/03/30 09:09:37;;;;;;;6.53;3.28;;;13.20;74.40;;;;;;5045439;28;20087;-78
2021/03/30 09:12:07;;;;;;;6.03;3.45;;;13.20;74.00;;;;;;5031899;28;20057;-76
2021/03/30 09:14:34;;;;;;;7.15;3.42;;;13.30;73.50;;;;;;5039871;28;20085;-76
2021/03/30 09:17:09;;;;;;;6.70;3.58;;;13.40;73.20;;;;;;5051601;28;20462;-76
2021/03/30 09:19:42;;;;;;;8.43;3.70;;;13.50;73.20;;;;;;5051051;28;20128;-76
2021/03/30 09:22:16;;;;;;;8.45;3.58;;;13.50;72.60;;;;;;5050977;28;20364;-77
2021/03/30 09:24:56;;;;;;;6.30;3.10;;;13.60;71.50;;;;;;5051489;28;20057;-76
2021/03/30 09:27:24;;;;;;;7.70;3.20;;;13.70;70.70;;;;;;5037524;28;20072;-77
2021/03/30 09:29:54;;;;;;;7.68;3.60;;;13.80;70.00;;;;;;5031450;28;20049;-74
2021/03/30 09:32:23;;;;;;;6.55;3.20;;;13.80;69.50;;;;;;5031050;28;20136;-74
2021/03/30 09:34:50;;;;;;;6.97;3.40;;;13.90;68.80;;;;;;5030715;28;20499;-77
2021/03/30 09:37:17;;;;;;;5.57;3.25;;;14.00;68.40;;;;;;5030835;28;20041;-76
2021/03/30 09:39:44;;;;;;;6.97;3.53;;;14.10;68.10;;;;;;5031030;28;20104;-75
2021/03/30 09:42:12;;;;;;;6.95;3.45;;;14.10;66.60;;;;;;5031147;28;20510;-77
2021/03/30 09:44:42;;;;;;;6.35;3.60;;;14.20;65.40;;;;;;5031018;28;20124;-75
2021/03/30 09:47:11;;;;;;;6.72;3.67;;;14.20;64.50;;;;;;5031141;28;20045;-77
2021/03/30 09:49:38;;;;;;;7.35;3.58;;;14.30;63.80;;;;;;5035477;28;20073;-74
2021/03/30 09:52:06;;;;;;;6.38;3.40;;;14.40;63.60;;;;;;5045850;28;20041;-75
2021/03/30 09:54:40;;;;;;;6.78;3.47;;;14.40;63.40;;;;;;5034296;28;20060;-76
2021/03/30 09:57:13;;;;;;;9.17;3.90;;;14.50;63.10;;;;;;5034397;28;20394;-76
2021/03/30 09:59:45;;;;;;;5.70;3.20;;;14.60;62.90;;;;;;5036026;28;20326;-76
2021/03/30 10:02:12;;;;;;;7.45;3.80;;;14.60;63.60;;;;;;5037187;28;20128;-75
2021/03/30 10:04:39;;;;;;;6.65;3.17;;;14.70;62.70;;;;;;5030563;28;20141;-76
2021/03/30 10:07:17;;;;;;;9.02;4.13;;;14.80;61.90;;;;;;5050788;28;20089;-76
2021/03/30 10:09:59;;;;;;;6.78;3.50;;;14.90;61.20;;;;;;5051652;28;20277;-75
2021/03/30 10:12:31;;;;;;;7.45;3.33;;;15.00;61.00;;;;;;5049682;28;20061;-77
2021/03/30 10:14:59;;;;;;;7.72;3.75;;;15.10;60.80;;;;;;5050996;28;20483;-77
2021/03/30 10:17:28;;;;;;;7.53;3.22;;;15.30;60.80;;;;;;5044798;28;20045;-77
2021/03/30 10:19:56;;;;;;;7.20;3.25;;;15.50;60.10;;;;;;5030670;28;20103;-77
2021/03/30 10:22:31;;;;;;;7.65;3.90;;;15.60;58.80;;;;;;5035288;28;20582;-76
2021/03/30 10:25:13;;;;;;;6.88;3.55;;;15.70;58.10;;;;;;5045999;28;20049;-77
2021/03/30 10:27:48;;;;;;;9.07;3.40;;;15.80;57.20;;;;;;5051324;28;20057;-76
2021/03/30 10:30:16;;;;;;;7.68;3.22;;;15.90;55.40;;;;;;5050400;28;20421;-76
2021/03/30 10:32:51;;;;;;;8.65;4.15;;;15.90;54.40;;;;;;5050081;28;20057;-76
2021/03/30 10:35:19;;;;;;;6.20;3.42;;;16.00;53.70;;;;;;5050520;28;20091;-76
2021/03/30 10:37:46;;;;;;;7.13;3.50;;;16.10;53.10;;;;;;5048897;28;20059;-76
2021/03/30 10:40:15;;;;;;;7.07;3.50;;;16.10;53.20;;;;;;5050024;28;20140;-75
2021/03/30 10:42:42;;;;;;;6.88;3.80;;;16.30;53.30;;;;;;5050006;28;20049;-76
2021/03/30 10:45:11;;;;;;;9.65;4.20;;;16.40;52.60;;;;;;5043525;28;20136;-76
2021/03/30 10:47:40;;;;;;;8.00;3.58;;;16.40;51.70;;;;;;5041549;28;20080;-76
2021/03/30 10:50:11;;;;;;;5.78;3.35;;;16.50;51.60;;;;;;5044182;28;20494;-75
2021/03/30 10:52:38;;;;;;;7.20;3.70;;;16.60;51.30;;;;;;5050646;28;20045;-77
2021/03/30 10:55:09;;;;;;;7.40;3.58;;;16.70;51.10;;;;;;5050477;28;20536;-76
2021/03/30 10:57:39;;;;;;;8.70;4.10;;;16.80;51.10;;;;;;5050182;28;20053;-77
2021/03/30 11:00:09;;;;;;;8.43;4.20;;;16.80;51.00;;;;;;5050856;28;20045;-77
2021/03/30 11:02:36;;;;;;;6.72;3.90;;;16.90;50.60;;;;;;5048746;28;20053;-77
2021/03/30 11:05:04;;;;;;;5.38;3.28;;;17.00;50.60;;;;;;5049113;28;20084;-76
2021/03/30 11:07:31;;;;;;;8.25;4.38;;;17.10;50.80;;;;;;5049782;28;20140;-77
2021/03/30 11:09:58;;;;;;;6.85;3.97;;;17.20;50.60;;;;;;5049904;28;20167;-78
2021/03/30 11:12:25;;;;;;;8.15;3.40;;;17.30;50.20;;;;;;5047081;28;20056;-77
2021/03/30 11:14:52;;;;;;;7.65;3.58;;;17.40;50.60;;;;;;5033800;28;20137;-77
2021/03/30 11:17:19;;;;;;;6.20;3.97;;;17.50;49.80;;;;;;5033569;28;20084;-77
2021/03/30 11:19:46;;;;;;;7.72;4.25;;;17.60;49.30;;;;;;5033813;28;20057;-77
2021/03/30 11:22:13;;;;;;;6.72;3.67;;;17.70;47.90;;;;;;5037163;28;20045;-77
2021/03/30 11:24:40;;;;;;;8.50;3.72;;;17.80;47.70;;;;;;5050617;28;20041;-76
2021/03/30 11:27:08;;;;;;;8.35;3.70;;;18.00;47.10;;;;;;5053006;28;20061;-75
2021/03/30 11:29:41;;;;;;;5.95;3.47;;;18.00;46.10;;;;;;5052714;28;20107;-76
2021/03/30 11:32:28;;;;;;;8.77;4.35;;;18.20;46.50;;;;;;5041104;28;20402;-77
2021/03/30 11:34:56;;;;;;;6.72;4.28;;;18.30;46.00;;;;;;5053053;28;20065;-76
2021/03/30 11:37:39;;;;;;;8.10;4.13;;;18.40;46.30;;;;;;5038944;28;20384;-78
2021/03/30 11:40:08;;;;;;;7.88;4.32;;;18.50;46.40;;;;;;5033136;28;20046;-78
2021/03/30 11:42:35;;;;;;;10.80;3.95;;;18.60;46.10;;;;;;5032514;28;20552;-76
2021/03/30 11:45:02;;;;;;;5.30;3.10;;;18.80;45.70;;;;;;5032911;28;20124;-78
2021/03/30 11:47:30;;;;;;;6.00;3.10;;;18.80;46.60;;;;;;5033414;28;20054;-77
2021/03/30 11:49:56;;;;;;;6.15;3.10;;;19.00;46.40;;;;;;5044245;28;20412;-78
2021/03/30 11:52:23;;;;;;;5.85;3.17;;;19.00;46.30;;;;;;5048761;28;20130;-78
2021/03/30 11:54:50;;;;;;;8.57;4.28;;;19.20;46.00;;;;;;5049800;28;20131;-78
2021/03/30 11:57:19;;;;;;;8.13;3.30;;;19.30;44.80;;;;;;5032375;28;20513;-78
2021/03/30 11:59:45;;;;;;;6.72;3.70;;;19.50;44.80;;;;;;5032699;28;20057;-78
2021/03/30 12:02:12;;;;;;;8.60;3.70;;;19.60;44.10;;;;;;5032666;28;20057;-77
2021/03/30 12:04:40;;;;;;;6.05;3.58;;;19.70;44.10;;;;;;5034446;28;20114;-78
2021/03/30 12:07:07;;;;;;;6.50;2.95;;;19.90;43.50;;;;;;5039681;28;20049;-78
2021/03/30 12:09:34;;;;;;;5.15;2.80;;;20.00;42.70;;;;;;5036684;28;20124;-78
2021/03/30 12:12:00;;;;;;;8.32;3.80;;;20.10;42.40;;;;;;5032518;28;20049;-76
2021/03/30 12:14:28;;;;;;;5.95;3.38;;;20.20;41.90;;;;;;5032916;28;20050;-76
2021/03/30 12:16:55;;;;;;;5.53;3.00;;;20.40;41.20;;;;;;5032813;28;20132;-77
2021/03/30 12:19:21;;;;;;;5.60;2.60;;;20.50;41.40;;;;;;5034232;28;20103;-77
2021/03/30 12:21:52;;;;;;;5.93;3.22;;;20.70;41.20;;;;;;5047132;28;20449;-77
2021/03/30 12:24:18;;;;;;;5.97;3.40;;;21.00;41.00;;;;;;5052026;28;20060;-75
2021/03/30 12:26:48;;;;;;;5.53;2.83;;;21.10;41.00;;;;;;5051903;28;20114;-79
2021/03/30 12:29:15;;;;;;;5.72;3.17;;;21.20;40.70;;;;;;5052362;28;20053;-78
2021/03/30 12:31:42;;;;;;;5.00;2.92;;;21.40;39.30;;;;;;5052662;28;20049;-78
2021/03/30 12:34:09;;;;;;;7.40;3.55;;;21.50;39.40;;;;;;5051591;28;20048;-79
2021/03/30 12:36:35;;;;;;;6.13;3.10;;;21.60;39.90;;;;;;5043027;28;20048;-78
2021/03/30 12:39:05;;;;;;;6.38;3.30;;;21.90;39.70;;;;;;5030476;28;20057;-77
2021/03/30 12:41:32;;;;;;;6.70;3.38;;;22.10;38.40;;;;;;5030380;28;20064;-78
2021/03/30 12:43:58;;;;;;;5.57;3.22;;;22.30;38.50;;;;;;5029982;28;20048;-79
2021/03/30 12:46:25;;;;;;;6.25;3.67;;;22.40;38.50;;;;;;5030051;28;20077;-78
2021/03/30 12:48:53;;;;;;;7.20;3.65;;;22.60;38.00;;;;;;5029766;28;20562;-77
2021/03/30 12:51:21;;;;;;;5.45;3.03;;;22.70;37.50;;;;;;5035713;28;20435;-79
2021/03/30 12:53:47;;;;;;;6.97;3.80;;;22.70;37.50;;;;;;5046106;28;20049;-78
2021/03/30 12:56:15;;;;;;;6.47;4.03;;;22.90;37.70;;;;;;5046203;28;20084;-78
2021/03/30 12:58:42;;;;;;;6.20;3.50;;;23.10;37.20;;;;;;5039088;28;20132;-77
2021/03/30 13:01:09;;;;;;;6.55;3.60;;;23.20;36.90;;;;;;5035526;28;20220;-79
2021/03/30 13:03:36;;;;;;;6.13;3.38;;;23.30;37.10;;;;;;5042539;28;20118;-78
2021/03/30 13:06:02;;;;;;;5.93;3.88;;;23.30;36.10;;;;;;5036700;28;20132;-77
2021/03/30 13:08:29;;;;;;;6.65;4.10;;;23.30;35.60;;;;;;5048946;28;20164;-78
2021/03/30 13:10:56;;;;;;;7.13;3.83;;;23.30;35.20;;;;;;5049357;28;20128;-78
2021/03/30 13:13:24;;;;;;;6.05;2.97;;;23.20;35.20;;;;;;5051186;28;20065;-76